sensor_id;sensor_type;location;lat;lon;timestamp;pressure;altitude;pressure_sealevel;temperature;humidity
33265;BME280;31404;53.974;-1.086;2023-01-27T00:00:39;103272.45;;;5.14;94.14
33265;BME280;31404;53.974;-1.086;2023-01-27T00:05:35;103273.26;;;5.57;92.87
33265;BME280;31404;53.974;-1.086;2023-01-27T00:10:34;103272.15;;;5.75;92.39
33265;BME280;31404;53.974;-1.086;2023-01-27T00:15:35;103273.87;;;4.40;96.98
33265;BME280;31404;53.974;-1.086;2023-01-27T00:20:35;103278.54;;;5.03;94.68
33265;BME280;31404;53.974;-1.086;2023-01-27T00:25:34;103269.73;;;6.07;90.87
33265;BME280;31404;53.974;-1.086;2023-01-27T00:30:34;103265.01;;;6.20;89.56
33265;BME280;31404;53.974;-1.086;2023-01-27T00:35:34;103268.55;;;6.49;88.07
33265;BME280;31404;53.974;-1.086;2023-01-27T00:40:34;103281.92;;;5.10;94.48
33265;BME280;31404;53.974;-1.086;2023-01-27T00:45:34;103277.54;;;5.27;94.92
33265;BME280;31404;53.974;-1.086;2023-01-27T00:50:34;103280.20;;;5.62;92.10
33265;BME280;31404;53.974;-1.086;2023-01-27T00:55:34;103272.88;;;4.40;97.21
33265;BME280;31404;53.974;-1.086;2023-01-27T01:00:34;103271.43;;;4.49;96.31
33265;BME280;31404;53.974;-1.086;2023-01-27T01:05:34;103262.25;;;4.26;97.29
33265;BME280;31404;53.974;-1.086;2023-01-27T01:10:36;103258.78;;;4.36;97.77
33265;BME280;31404;53.974;-1.086;2023-01-27T01:15:35;103257.42;;;4.50;97.66
33265;BME280;31404;53.974;-1.086;2023-01-27T01:20:35;103261.66;;;5.08;94.64
33265;BME280;31404;53.974;-1.086;2023-01-27T01:25:35;103262.88;;;4.87;94.01
33265;BME280;31404;53.974;-1.086;2023-01-27T01:30:35;103262.84;;;5.25;92.83
33265;BME280;31404;53.974;-1.086;2023-01-27T01:35:37;103267.09;;;5.43;92.15
33265;BME280;31404;53.974;-1.086;2023-01-27T01:50:35;103256.29;;;4.96;95.55
33265;BME280;31404;53.974;-1.086;2023-01-27T01:55:36;103249.85;;;5.56;93.17
33265;BME280;31404;53.974;-1.086;2023-01-27T02:00:35;103250.01;;;6.19;89.89
33265;BME280;31404;53.974;-1.086;2023-01-27T02:10:35;103266.15;;;5.61;91.51
33265;BME280;31404;53.974;-1.086;2023-01-27T02:15:35;103268.18;;;5.31;92.52
33265;BME280;31404;53.974;-1.086;2023-01-27T02:30:34;103270.20;;;4.44;95.60
33265;BME280;31404;53.974;-1.086;2023-01-27T02:35:37;103264.07;;;4.27;95.45
33265;BME280;31404;53.974;-1.086;2023-01-27T02:40:35;103261.23;;;4.41;95.60
33265;BME280;31404;53.974;-1.086;2023-01-27T02:45:34;103260.46;;;4.89;90.60
33265;BME280;31404;53.974;-1.086;2023-01-27T02:50:34;103267.85;;;4.60;93.41
33265;BME280;31404;53.974;-1.086;2023-01-27T02:55:35;103259.65;;;5.69;90.22
33265;BME280;31404;53.974;-1.086;2023-01-27T03:00:34;103254.52;;;4.89;92.72
33265;BME280;31404;53.974;-1.086;2023-01-27T03:05:34;103249.83;;;5.72;89.99
33265;BME280;31404;53.974;-1.086;2023-01-27T03:10:35;103247.37;;;5.57;90.13
33265;BME280;31404;53.974;-1.086;2023-01-27T03:15:35;103251.43;;;4.86;92.75
33265;BME280;31404;53.974;-1.086;2023-01-27T03:20:34;103252.27;;;5.61;89.62
33265;BME280;31404;53.974;-1.086;2023-01-27T03:25:35;103246.23;;;4.32;92.95
33265;BME280;31404;53.974;-1.086;2023-01-27T03:30:35;103242.58;;;6.33;86.35
33265;BME280;31404;53.974;-1.086;2023-01-27T03:35:36;103245.67;;;6.31;86.20
33265;BME280;31404;53.974;-1.086;2023-01-27T03:40:35;103243.54;;;6.40;84.70
33265;BME280;31404;53.974;-1.086;2023-01-27T03:45:35;103249.05;;;7.34;81.24
33265;BME280;31404;53.974;-1.086;2023-01-27T03:50:34;103242.66;;;7.45;80.37
33265;BME280;31404;53.974;-1.086;2023-01-27T03:55:36;103246.82;;;7.67;79.20
33265;BME280;31404;53.974;-1.086;2023-01-27T04:00:34;103251.41;;;7.06;80.48
33265;BME280;31404;53.974;-1.086;2023-01-27T04:05:35;103244.30;;;7.40;79.90
33265;BME280;31404;53.974;-1.086;2023-01-27T04:10:28;103241.39;;;6.24;83.89
33265;BME280;31404;53.974;-1.086;2023-01-27T04:15:35;103245.54;;;6.21;82.71
33265;BME280;31404;53.974;-1.086;2023-01-27T04:20:35;103244.83;;;6.19;83.86
33265;BME280;31404;53.974;-1.086;2023-01-27T04:25:35;103249.28;;;6.05;84.11
33265;BME280;31404;53.974;-1.086;2023-01-27T04:30:35;103234.07;;;6.79;83.27
33265;BME280;31404;53.974;-1.086;2023-01-27T04:35:35;103234.72;;;6.39;85.23
33265;BME280;31404;53.974;-1.086;2023-01-27T04:40:35;103228.73;;;5.74;85.99
33265;BME280;31404;53.974;-1.086;2023-01-27T04:45:35;103225.24;;;6.89;81.62
33265;BME280;31404;53.974;-1.086;2023-01-27T04:50:35;103230.63;;;7.29;80.44
33265;BME280;31404;53.974;-1.086;2023-01-27T04:55:35;103223.63;;;7.53;79.45
33265;BME280;31404;53.974;-1.086;2023-01-27T05:00:35;103221.90;;;7.37;79.73
33265;BME280;31404;53.974;-1.086;2023-01-27T05:05:34;103225.58;;;7.04;79.01
33265;BME280;31404;53.974;-1.086;2023-01-27T05:10:35;103226.34;;;7.71;77.41
33265;BME280;31404;53.974;-1.086;2023-01-27T05:15:35;103229.11;;;6.68;77.92
33265;BME280;31404;53.974;-1.086;2023-01-27T05:20:34;103226.42;;;6.17;81.41
33265;BME280;31404;53.974;-1.086;2023-01-27T05:25:34;103228.38;;;7.07;78.94
33265;BME280;31404;53.974;-1.086;2023-01-27T05:30:34;103229.80;;;6.12;81.98
33265;BME280;31404;53.974;-1.086;2023-01-27T05:35:34;103238.10;;;6.01;83.52
33265;BME280;31404;53.974;-1.086;2023-01-27T05:40:34;103235.42;;;5.36;84.69
33265;BME280;31404;53.974;-1.086;2023-01-27T05:45:34;103227.85;;;5.73;84.45
33265;BME280;31404;53.974;-1.086;2023-01-27T05:50:34;103215.05;;;6.33;83.02
33265;BME280;31404;53.974;-1.086;2023-01-27T05:55:34;103215.43;;;6.95;80.85
33265;BME280;31404;53.974;-1.086;2023-01-27T06:00:34;103219.07;;;6.68;80.51
33265;BME280;31404;53.974;-1.086;2023-01-27T06:05:35;103219.68;;;7.02;79.74
33265;BME280;31404;53.974;-1.086;2023-01-27T06:10:35;103225.20;;;4.97;87.62
33265;BME280;31404;53.974;-1.086;2023-01-27T06:15:35;103225.56;;;5.38;85.36
33265;BME280;31404;53.974;-1.086;2023-01-27T06:20:34;103232.89;;;5.32;86.44
33265;BME280;31404;53.974;-1.086;2023-01-27T06:25:37;103235.46;;;4.64;88.54
33265;BME280;31404;53.974;-1.086;2023-01-27T06:30:35;103230.98;;;4.54;89.54
33265;BME280;31404;53.974;-1.086;2023-01-27T06:35:36;103233.87;;;5.26;85.96
33265;BME280;31404;53.974;-1.086;2023-01-27T06:40:35;103229.91;;;5.48;85.54
33265;BME280;31404;53.974;-1.086;2023-01-27T06:45:35;103232.07;;;5.84;83.89
33265;BME280;31404;53.974;-1.086;2023-01-27T06:50:35;103235.33;;;4.30;90.06
33265;BME280;31404;53.974;-1.086;2023-01-27T06:55:35;103236.64;;;4.17;90.97
33265;BME280;31404;53.974;-1.086;2023-01-27T07:00:34;103238.25;;;4.19;91.05
33265;BME280;31404;53.974;-1.086;2023-01-27T07:05:36;103246.90;;;4.63;90.17
33265;BME280;31404;53.974;-1.086;2023-01-27T07:10:34;103245.67;;;4.98;87.73
33265;BME280;31404;53.974;-1.086;2023-01-27T07:15:34;103254.61;;;3.89;93.28
33265;BME280;31404;53.974;-1.086;2023-01-27T07:20:35;103269.76;;;3.51;96.46
33265;BME280;31404;53.974;-1.086;2023-01-27T07:25:35;103266.94;;;4.52;93.52
33265;BME280;31404;53.974;-1.086;2023-01-27T07:30:35;103263.58;;;4.52;93.06
33265;BME280;31404;53.974;-1.086;2023-01-27T07:35:35;103266.52;;;4.33;93.08
33265;BME280;31404;53.974;-1.086;2023-01-27T07:40:35;103271.39;;;5.05;90.93
33265;BME280;31404;53.974;-1.086;2023-01-27T07:45:35;103279.68;;;4.93;90.43
33265;BME280;31404;53.974;-1.086;2023-01-27T07:50:35;103280.04;;;3.80;96.70
33265;BME280;31404;53.974;-1.086;2023-01-27T07:55:35;103287.23;;;4.39;93.54
33265;BME280;31404;53.974;-1.086;2023-01-27T08:00:35;103296.26;;;5.00;97.16
33265;BME280;31404;53.974;-1.086;2023-01-27T08:05:34;103299.45;;;3.97;95.95
33265;BME280;31404;53.974;-1.086;2023-01-27T08:10:34;103303.88;;;4.19;94.38
33265;BME280;31404;53.974;-1.086;2023-01-27T08:15:34;103297.84;;;3.88;94.73
33265;BME280;31404;53.974;-1.086;2023-01-27T08:20:35;103296.76;;;4.69;93.16
33265;BME280;31404;53.974;-1.086;2023-01-27T08:25:35;103301.46;;;5.42;88.97
33265;BME280;31404;53.974;-1.086;2023-01-27T08:30:35;103303.34;;;5.59;89.07
33265;BME280;31404;53.974;-1.086;2023-01-27T08:35:34;103303.87;;;5.06;90.18
33265;BME280;31404;53.974;-1.086;2023-01-27T08:40:34;103313.03;;;5.51;88.77
33265;BME280;31404;53.974;-1.086;2023-01-27T08:45:35;103319.93;;;4.37;92.85
33265;BME280;31404;53.974;-1.086;2023-01-27T08:50:34;103322.67;;;5.53;88.76
33265;BME280;31404;53.974;-1.086;2023-01-27T08:55:34;103329.39;;;6.02;90.67
33265;BME280;31404;53.974;-1.086;2023-01-27T09:00:34;103328.96;;;6.49;85.02
33265;BME280;31404;53.974;-1.086;2023-01-27T09:05:35;103333.20;;;5.93;85.60
33265;BME280;31404;53.974;-1.086;2023-01-27T09:10:37;103336.45;;;4.51;95.29
33265;BME280;31404;53.974;-1.086;2023-01-27T09:15:35;103345.45;;;4.96;91.80
33265;BME280;31404;53.974;-1.086;2023-01-27T09:20:35;103336.11;;;5.52;90.81
33265;BME280;31404;53.974;-1.086;2023-01-27T09:25:35;103335.24;;;5.77;89.81
33265;BME280;31404;53.974;-1.086;2023-01-27T09:30:35;103339.20;;;5.60;89.84
33265;BME280;31404;53.974;-1.086;2023-01-27T10:15:42;103321.04;;;5.05;94.78
33265;BME280;31404;53.974;-1.086;2023-01-27T10:30:36;103323.37;;;4.91;96.60
33265;BME280;31404;53.974;-1.086;2023-01-27T10:35:38;103323.68;;;5.04;96.15
33265;BME280;31404;53.974;-1.086;2023-01-27T10:45:37;103328.84;;;4.99;98.61
33265;BME280;31404;53.974;-1.086;2023-01-27T10:50:39;103334.35;;;3.36;100.00
33265;BME280;31404;53.974;-1.086;2023-01-27T10:55:39;103325.98;;;3.28;100.00
33265;BME280;31404;53.974;-1.086;2023-01-27T11:05:38;103318.66;;;2.87;100.00
33265;BME280;31404;53.974;-1.086;2023-01-27T11:10:37;103312.93;;;4.81;100.00
33265;BME280;31404;53.974;-1.086;2023-01-27T11:15:34;103311.66;;;1.89;100.00
33265;BME280;31404;53.974;-1.086;2023-01-27T11:20:38;103292.97;;;3.98;100.00
33265;BME280;31404;53.974;-1.086;2023-01-27T11:30:38;103289.49;;;5.31;100.00
33265;BME280;31404;53.974;-1.086;2023-01-27T11:35:35;103284.12;;;4.72;100.00
33265;BME280;31404;53.974;-1.086;2023-01-27T11:40:36;103275.24;;;5.37;100.00
33265;BME280;31404;53.974;-1.086;2023-01-27T11:45:35;103278.42;;;4.96;100.00
33265;BME280;31404;53.974;-1.086;2023-01-27T11:50:35;103265.88;;;5.59;100.00
33265;BME280;31404;53.974;-1.086;2023-01-27T11:55:37;103257.50;;;5.28;100.00
33265;BME280;31404;53.974;-1.086;2023-01-27T12:05:41;103247.48;;;5.95;96.59
33265;BME280;31404;53.974;-1.086;2023-01-27T12:10:37;103245.77;;;5.60;98.89
33265;BME280;31404;53.974;-1.086;2023-01-27T12:15:35;103233.95;;;6.05;95.65
33265;BME280;31404;53.974;-1.086;2023-01-27T12:20:36;103222.81;;;5.85;96.00
33265;BME280;31404;53.974;-1.086;2023-01-27T12:35:35;103223.28;;;6.14;94.20
33265;BME280;31404;53.974;-1.086;2023-01-27T12:45:34;103213.81;;;4.23;100.00
33265;BME280;31404;53.974;-1.086;2023-01-27T12:50:36;103209.90;;;4.22;100.00
33265;BME280;31404;53.974;-1.086;2023-01-27T12:55:37;103200.48;;;5.61;95.64
33265;BME280;31404;53.974;-1.086;2023-01-27T13:00:35;103188.94;;;5.22;96.99
33265;BME280;31404;53.974;-1.086;2023-01-27T13:05:37;103180.11;;;5.82;91.42
33265;BME280;31404;53.974;-1.086;2023-01-27T13:10:34;103174.69;;;6.52;90.12
33265;BME280;31404;53.974;-1.086;2023-01-27T13:15:34;103167.76;;;7.37;85.20
33265;BME280;31404;53.974;-1.086;2023-01-27T13:25:40;103167.30;;;6.78;85.19
33265;BME280;31404;53.974;-1.086;2023-01-27T13:30:37;103156.01;;;5.87;88.75
33265;BME280;31404;53.974;-1.086;2023-01-27T13:45:38;103154.93;;;6.33;86.89
33265;BME280;31404;53.974;-1.086;2023-01-27T13:50:37;103157.46;;;7.27;81.52
33265;BME280;31404;53.974;-1.086;2023-01-27T14:05:41;103135.60;;;6.94;82.87
33265;BME280;31404;53.974;-1.086;2023-01-27T14:30:38;103151.15;;;7.04;85.80
33265;BME280;31404;53.974;-1.086;2023-01-27T14:45:36;103167.64;;;5.28;92.76
33265;BME280;31404;53.974;-1.086;2023-01-27T14:50:39;103166.70;;;5.01;94.72
33265;BME280;31404;53.974;-1.086;2023-01-27T15:10:38;103154.60;;;5.57;84.29
33265;BME280;31404;53.974;-1.086;2023-01-27T15:25:36;103147.60;;;7.48;79.01
33265;BME280;31404;53.974;-1.086;2023-01-27T15:30:36;103148.49;;;7.78;78.97
33265;BME280;31404;53.974;-1.086;2023-01-27T15:35:37;103141.10;;;8.60;76.19
33265;BME280;31404;53.974;-1.086;2023-01-27T15:45:36;103133.78;;;8.96;90.18
33265;BME280;31404;53.974;-1.086;2023-01-27T15:55:36;103131.30;;;8.89;73.98
33265;BME280;31404;53.974;-1.086;2023-01-27T16:00:36;103127.73;;;9.64;72.62
33265;BME280;31404;53.974;-1.086;2023-01-27T16:05:36;103131.71;;;9.32;72.19
33265;BME280;31404;53.974;-1.086;2023-01-27T16:10:35;103138.76;;;9.32;70.91
33265;BME280;31404;53.974;-1.086;2023-01-27T16:15:35;103146.35;;;8.96;72.59
33265;BME280;31404;53.974;-1.086;2023-01-27T16:40:34;103170.40;;;7.13;78.11
33265;BME280;31404;53.974;-1.086;2023-01-27T16:50:36;103159.83;;;9.67;72.12
33265;BME280;31404;53.974;-1.086;2023-01-27T16:55:35;103161.35;;;9.68;72.16
33265;BME280;31404;53.974;-1.086;2023-01-27T17:00:35;103164.11;;;8.97;72.54
33265;BME280;31404;53.974;-1.086;2023-01-27T17:05:34;103165.55;;;8.38;74.62
33265;BME280;31404;53.974;-1.086;2023-01-27T17:10:34;103156.51;;;9.40;73.01
33265;BME280;31404;53.974;-1.086;2023-01-27T17:15:37;103158.85;;;8.46;76.28
33265;BME280;31404;53.974;-1.086;2023-01-27T17:25:36;103164.75;;;8.92;73.72
33265;BME280;31404;53.974;-1.086;2023-01-27T17:30:37;103165.29;;;7.73;78.45
33265;BME280;31404;53.974;-1.086;2023-01-27T17:35:36;103180.11;;;7.46;78.97
33265;BME280;31404;53.974;-1.086;2023-01-27T17:40:38;103172.09;;;9.57;72.08
33265;BME280;31404;53.974;-1.086;2023-01-27T17:45:35;103168.17;;;9.54;70.57
33265;BME280;31404;53.974;-1.086;2023-01-27T17:50:36;103171.00;;;10.31;68.92
33265;BME280;31404;53.974;-1.086;2023-01-27T17:55:35;103171.26;;;9.51;70.62
33265;BME280;31404;53.974;-1.086;2023-01-27T18:00:37;103172.95;;;9.09;71.96
33265;BME280;31404;53.974;-1.086;2023-01-27T18:05:37;103180.53;;;8.47;74.78
33265;BME280;31404;53.974;-1.086;2023-01-27T18:10:38;103184.18;;;8.47;75.44
33265;BME280;31404;53.974;-1.086;2023-01-27T18:20:35;103174.11;;;8.47;74.32
33265;BME280;31404;53.974;-1.086;2023-01-27T18:25:34;103177.95;;;8.91;72.75
33265;BME280;31404;53.974;-1.086;2023-01-27T18:30:35;103174.57;;;7.94;74.75
33265;BME280;31404;53.974;-1.086;2023-01-27T18:35:35;103178.10;;;8.34;75.10
33265;BME280;31404;53.974;-1.086;2023-01-27T18:40:35;103178.57;;;8.28;74.53
33265;BME280;31404;53.974;-1.086;2023-01-27T18:45:34;103179.35;;;8.49;74.77
33265;BME280;31404;53.974;-1.086;2023-01-27T18:55:34;103184.05;;;8.72;72.27
33265;BME280;31404;53.974;-1.086;2023-01-27T19:00:36;103180.88;;;8.77;72.82
33265;BME280;31404;53.974;-1.086;2023-01-27T19:05:35;103175.78;;;9.34;70.04
33265;BME280;31404;53.974;-1.086;2023-01-27T19:10:35;103178.86;;;8.74;72.37
33265;BME280;31404;53.974;-1.086;2023-01-27T19:15:37;103183.73;;;7.42;75.25
33265;BME280;31404;53.974;-1.086;2023-01-27T19:20:34;103177.41;;;8.36;72.91
33265;BME280;31404;53.974;-1.086;2023-01-27T19:25:34;103173.37;;;8.28;72.02
33265;BME280;31404;53.974;-1.086;2023-01-27T19:30:34;103165.51;;;7.63;73.86
33265;BME280;31404;53.974;-1.086;2023-01-27T19:35:35;103170.34;;;8.39;70.60
33265;BME280;31404;53.974;-1.086;2023-01-27T19:40:35;103174.60;;;8.63;70.13
33265;BME280;31404;53.974;-1.086;2023-01-27T19:50:35;103190.14;;;8.09;69.63
33265;BME280;31404;53.974;-1.086;2023-01-27T19:55:35;103192.04;;;6.09;75.13
33265;BME280;31404;53.974;-1.086;2023-01-27T20:00:36;103194.87;;;7.38;71.44
33265;BME280;31404;53.974;-1.086;2023-01-27T20:05:35;103204.30;;;7.53;70.76
33265;BME280;31404;53.974;-1.086;2023-01-27T20:10:34;103204.26;;;7.19;71.40
33265;BME280;31404;53.974;-1.086;2023-01-27T20:15:36;103203.85;;;7.22;70.30
33265;BME280;31404;53.974;-1.086;2023-01-27T20:20:36;103206.62;;;5.43;75.01
33265;BME280;31404;53.974;-1.086;2023-01-27T20:25:35;103199.56;;;6.01;74.45
33265;BME280;31404;53.974;-1.086;2023-01-27T20:30:35;103196.65;;;7.10;71.70
33265;BME280;31404;53.974;-1.086;2023-01-27T20:35:36;103201.52;;;6.38;73.64
33265;BME280;31404;53.974;-1.086;2023-01-27T20:40:35;103209.14;;;6.48;72.91
33265;BME280;31404;53.974;-1.086;2023-01-27T20:45:35;103209.24;;;6.87;71.85
33265;BME280;31404;53.974;-1.086;2023-01-27T20:50:35;103212.00;;;6.95;71.22
33265;BME280;31404;53.974;-1.086;2023-01-27T20:55:35;103211.61;;;6.26;73.53
33265;BME280;31404;53.974;-1.086;2023-01-27T21:00:35;103201.74;;;6.24;73.10
33265;BME280;31404;53.974;-1.086;2023-01-27T21:05:37;103188.44;;;6.14;73.96
33265;BME280;31404;53.974;-1.086;2023-01-27T21:10:34;103175.43;;;6.58;73.61
33265;BME280;31404;53.974;-1.086;2023-01-27T21:15:34;103174.53;;;5.86;73.33
33265;BME280;31404;53.974;-1.086;2023-01-27T21:20:34;103166.09;;;5.70;74.19
33265;BME280;31404;53.974;-1.086;2023-01-27T21:25:35;103172.97;;;6.08;72.90
33265;BME280;31404;53.974;-1.086;2023-01-27T21:30:35;103169.18;;;6.29;70.71
33265;BME280;31404;53.974;-1.086;2023-01-27T21:35:35;103162.58;;;5.99;72.96
33265;BME280;31404;53.974;-1.086;2023-01-27T21:40:34;103153.42;;;6.81;68.60
33265;BME280;31404;53.974;-1.086;2023-01-27T21:45:35;103155.01;;;7.30;68.19
33265;BME280;31404;53.974;-1.086;2023-01-27T21:50:35;103149.15;;;7.63;66.67
33265;BME280;31404;53.974;-1.086;2023-01-27T21:55:36;103147.14;;;7.85;65.64
33265;BME280;31404;53.974;-1.086;2023-01-27T22:00:35;103139.38;;;7.95;65.37
33265;BME280;31404;53.974;-1.086;2023-01-27T22:05:36;103139.06;;;7.71;65.82
33265;BME280;31404;53.974;-1.086;2023-01-27T22:10:35;103145.29;;;6.91;68.58
33265;BME280;31404;53.974;-1.086;2023-01-27T22:15:35;103139.35;;;6.81;69.87
33265;BME280;31404;53.974;-1.086;2023-01-27T22:20:34;103128.72;;;7.66;67.73
33265;BME280;31404;53.974;-1.086;2023-01-27T22:25:38;103126.36;;;7.22;69.09
33265;BME280;31404;53.974;-1.086;2023-01-27T22:30:36;103129.86;;;7.07;69.62
33265;BME280;31404;53.974;-1.086;2023-01-27T22:35:35;103123.67;;;6.81;69.17
33265;BME280;31404;53.974;-1.086;2023-01-27T22:40:35;103122.76;;;6.27;72.33
33265;BME280;31404;53.974;-1.086;2023-01-27T22:45:36;103127.05;;;6.57;71.21
33265;BME280;31404;53.974;-1.086;2023-01-27T22:50:35;103122.84;;;6.32;70.57
33265;BME280;31404;53.974;-1.086;2023-01-27T22:55:35;103118.46;;;6.54;70.46
33265;BME280;31404;53.974;-1.086;2023-01-27T23:00:35;103116.62;;;6.48;71.35
33265;BME280;31404;53.974;-1.086;2023-01-27T23:05:34;103112.07;;;6.35;72.64
33265;BME280;31404;53.974;-1.086;2023-01-27T23:10:35;103117.17;;;6.49;71.81
33265;BME280;31404;53.974;-1.086;2023-01-27T23:15:36;103103.85;;;6.44;71.45
33265;BME280;31404;53.974;-1.086;2023-01-27T23:20:34;103097.71;;;5.96;74.40
33265;BME280;31404;53.974;-1.086;2023-01-27T23:25:39;103087.54;;;6.92;71.77
33265;BME280;31404;53.974;-1.086;2023-01-27T23:30:34;103084.87;;;5.85;74.48
33265;BME280;31404;53.974;-1.086;2023-01-27T23:35:34;103083.79;;;6.49;72.95
33265;BME280;31404;53.974;-1.086;2023-01-27T23:40:35;103080.96;;;6.35;73.77
33265;BME280;31404;53.974;-1.086;2023-01-27T23:45:35;103076.46;;;6.56;72.92
33265;BME280;31404;53.974;-1.086;2023-01-27T23:50:35;103075.50;;;7.10;71.96
33265;BME280;31404;53.974;-1.086;2023-01-27T23:55:35;103069.41;;;6.22;74.29
